Pagrindinis puslapis
METAR-TAF:

METAR-TAF

Oro uostai :

Kairas, Egiptas

platuma: 30-08N, ilguma: 031-24E, Aukštis: 64 m

Dabartinis oras

Ataskaita buvo paskelbta 29 minutes, ne 05:00 UTC
Ramus vėjas
Temperatūra 12°C
Drėgmė 76%
Slėgis 1014 hPa
Matomumas 10 km arba daugiau
nėra debesų žemiau 1500 m ir nėra kamuolinių lietaus debesų

METAR: HECA 300500Z 00000KT CAVOK 12/08 Q1014

Laikas: 07:29 (05:29 UTC)

Prognozė

Ataskaita buvo paskelbta 6 valandos ir 29 minutes, ne 23:00 UTC
Prognozė galioja nuo 30 metu 00 UTC su 31 metu 06 UTC
Vėjas 8 kt iš Šiaurės/Šiaurės Rytų
Matomumas 10 km arba daugiau
Išsisklaidę debesys ne aukštis 2500 ft
Laikinai
nuo 30 metu 00 UTC su 30 metu 09 UTC
Vėjas 3 kt nuo kintamojo kryptimis
Matomumas: 4000 m
rūkana
Tikimybė 40% :
Laikinai
nuo 30 metu 02 UTC su 30 metu 08 UTC
Matomumas: 2000 m
Tikimybė 30% :
Laikinai
nuo 30 metu 04 UTC su 30 metu 06 UTC
Matomumas: 1000 m

TAF: HECA 292300Z 3000/3106 03008KT 9999 SCT025 TEMPO 3000/3009 VRB03KT 4000 BR NSC PROB40 TEMPO 3002/3008 2000 PROB30 TEMPO 3004/3006 1000

Orai ataskaitas ir orų prognozės (METAR, TAF).

turimą stotys yra geltonos ir raudonos taškus žemėlapyje.

Perkelti pele per norėdami pamatyti stoties vardą.

Tada spustelėkite, norėdami matyti oro stebėjimo ir prognozės.

Norėdami pakeisti žemėlapį: spustelėkite ant žalios mygtukų su juodo kryžiaus žemyn,; žalią mygtuką su brūkšneliu, jei norite nutolinti; arba žalių rodyklių gretimoms žemėlapius.


METAR-TAF: